Time;durP1;ratioP1;P1;durP2;ratioP2;P2;SDS_P1;SDS_P2;PMS_P1;PMS_P2;Temp;Humidity;BMP_temperature;BMP_pressure;BME280_temperature;BME280_humidity;BME280_pressure;Samples;Min_cycle;Max_cycle;Signal;HPM_P1;HPM_P2
2023/01/30 00:01:18;;;;;;;14.53;9.20;;;-0.80;83.00;;;2.66;49.92;98228.59;5032305;28;20041;-47
2023/01/30 00:03:46;;;;;;;16.13;9.13;;;-0.80;82.80;;;2.66;49.91;98213.66;5032567;28;20060;-49
2023/01/30 00:06:15;;;;;;;14.50;9.03;;;-0.90;82.90;;;2.64;50.00;98212.94;5032556;28;20045;-48
2023/01/30 00:08:43;;;;;;;15.57;9.27;;;-0.80;82.70;;;2.61;49.79;98214.91;5032249;28;20052;-45
2023/01/30 00:11:14;;;;;;;15.93;8.80;;;-0.90;82.80;;;2.61;49.60;98215.72;5031188;28;20053;-45
2023/01/30 00:13:42;;;;;;;15.17;8.83;;;-0.90;83.20;;;2.62;50.07;98208.69;5032338;28;20517;-44
2023/01/30 00:16:10;;;;;;;15.00;8.27;;;-0.90;83.20;;;2.61;50.25;98215.72;5031164;28;20479;-43
2023/01/30 00:18:39;;;;;;;12.60;7.70;;;-0.90;83.20;;;2.58;49.94;98210.69;5032367;28;20519;-44
2023/01/30 00:21:11;;;;;;;14.60;8.40;;;-0.90;83.30;;;2.57;49.83;98209.00;5030585;28;20496;-43
2023/01/30 00:23:39;;;;;;;11.67;7.37;;;-0.90;83.20;;;2.58;49.91;98210.69;5030949;28;20053;-45
2023/01/30 00:26:08;;;;;;;12.67;8.07;;;-0.90;83.10;;;2.56;49.96;98200.28;5032185;28;20045;-44
2023/01/30 00:28:38;;;;;;;13.07;7.73;;;-0.90;83.10;;;2.58;49.55;98186.16;5032211;28;20052;-43
2023/01/30 00:31:06;;;;;;;15.93;9.40;;;-1.00;83.00;;;2.57;50.00;98180.06;5030422;28;20061;-44
2023/01/30 00:33:36;;;;;;;11.67;7.90;;;-1.00;82.80;;;2.56;49.56;98184.50;5032113;28;20040;-43
2023/01/30 00:36:04;;;;;;;12.57;7.53;;;-1.00;82.80;;;2.55;49.68;98190.69;5031879;28;20413;-44
2023/01/30 00:38:32;;;;;;;14.03;8.03;;;-1.00;82.80;;;2.53;49.69;98196.97;5023054;28;20064;-48
2023/01/30 00:41:00;;;;;;;14.13;8.77;;;-1.00;82.90;;;2.50;49.29;98199.78;5030550;28;20053;-44
2023/01/30 00:49:17;;;;;;;14.63;9.13;;;-1.20;83.40;;;2.36;49.77;98229.56;5031939;28;20531;-43
2023/01/30 00:51:45;;;;;;;13.17;7.40;;;-1.20;83.40;;;2.37;49.44;98249.66;5031505;28;20056;-43
2023/01/30 00:54:13;;;;;;;14.07;8.40;;;-1.20;83.60;;;2.34;50.06;98258.56;5031904;28;20505;-45
2023/01/30 00:56:40;;;;;;;12.77;8.47;;;-1.20;83.30;;;2.24;49.98;98267.13;5030658;28;20045;-46
2023/01/30 00:59:08;;;;;;;14.23;7.97;;;-1.40;83.90;;;2.17;49.83;98279.78;5031707;28;20041;-45
2023/01/30 01:01:36;;;;;;;13.80;7.60;;;-1.40;84.20;;;2.03;50.38;98271.91;5031566;28;20516;-44
2023/01/30 01:04:06;;;;;;;13.20;8.13;;;-1.60;84.40;;;2.05;50.47;98259.50;5031764;28;20071;-43
2023/01/30 01:06:34;;;;;;;12.50;8.30;;;-1.60;85.60;;;2.01;50.01;98271.16;5023545;28;20048;-46
2023/01/30 01:09:02;;;;;;;13.30;7.83;;;-1.60;85.60;;;2.03;50.46;98269.28;5031465;28;20488;-43
2023/01/30 01:11:30;;;;;;;12.77;7.43;;;-1.60;86.20;;;2.00;50.67;98265.06;5030891;28;20048;-44
2023/01/30 01:14:00;;;;;;;15.40;8.30;;;-1.50;86.20;;;1.94;49.94;98270.69;5031170;28;20413;-43
2023/01/30 01:16:30;;;;;;;14.43;7.87;;;-1.60;85.50;;;1.98;50.02;98274.81;5030995;28;20045;-47
2023/01/30 01:18:59;;;;;;;15.80;8.60;;;-1.70;86.50;;;2.01;50.69;98264.09;5029863;28;20060;-43
2023/01/30 01:21:26;;;;;;;15.43;8.97;;;-1.60;86.80;;;2.02;50.27;98262.34;5029075;28;20049;-44
2023/01/30 01:23:58;;;;;;;17.53;9.17;;;-1.60;86.50;;;2.07;50.83;98273.41;5030157;28;20072;-44
2023/01/30 01:26:26;;;;;;;15.73;8.40;;;-1.50;86.70;;;2.13;50.23;98273.03;5030788;28;20045;-44
2023/01/30 01:28:58;;;;;;;16.00;8.87;;;-1.40;86.30;;;2.21;50.29;98262.06;5029507;28;20046;-44
2023/01/30 01:31:25;;;;;;;12.47;7.73;;;-1.40;86.10;;;2.25;50.14;98253.03;5029563;28;20057;-43
2023/01/30 01:33:55;;;;;;;14.37;7.83;;;-1.30;85.80;;;2.26;50.48;98268.72;5029710;28;20452;-43
2023/01/30 01:36:25;;;;;;;12.97;7.37;;;-1.30;85.60;;;2.25;50.59;98271.44;5029301;28;20053;-48
2023/01/30 01:39:12;;;;;;;14.43;8.37;;;-1.40;87.20;;;2.30;50.19;98262.31;5031009;28;20050;-44
2023/01/30 01:41:41;;;;;;;15.13;7.83;;;-1.30;87.10;;;2.38;50.60;98259.22;5029412;28;20045;-43
2023/01/30 01:44:12;;;;;;;15.53;8.57;;;-1.20;86.80;;;2.45;50.07;98265.81;5028244;28;20045;-43
2023/01/30 01:46:56;;;;;;;14.70;8.30;;;-1.20;86.40;;;2.42;50.42;98257.25;5023042;28;20037;-43
2023/01/30 01:49:35;;;;;;;17.10;8.55;;;-1.20;86.30;;;2.36;50.38;98240.09;5030819;28;20045;-45
2023/01/30 01:52:12;;;;;;;20.53;9.43;;;-1.20;88.30;;;2.41;50.43;98238.03;5029171;28;20057;-43
2023/01/30 01:54:58;;;;;;;16.03;9.57;;;-1.20;88.10;;;2.28;51.08;98253.69;5006022;28;20605;-46
2023/01/30 01:57:33;;;;;;;16.80;8.90;;;-1.20;87.90;;;2.09;51.67;98261.00;5029739;28;20049;-47
2023/01/30 02:00:11;;;;;;;19.80;9.83;;;-1.30;89.30;;;2.24;51.27;98248.75;5034265;28;20401;-43
2023/01/30 02:02:51;;;;;;;16.53;10.00;;;-1.30;90.60;;;2.33;51.70;98248.19;5036864;28;20044;-45
2023/01/30 02:05:19;;;;;;;18.60;10.70;;;-1.20;91.20;;;2.36;51.63;98238.31;5036418;28;20068;-43
2023/01/30 02:08:07;;;;;;;18.40;9.73;;;-1.20;91.90;;;2.28;51.46;98243.19;5036349;28;20053;-43
2023/01/30 02:11:31;;;;;;;15.80;9.53;;;-1.20;92.60;;;2.20;52.06;98220.97;5028169;28;20519;-43
2023/01/30 02:14:01;;;;;;;21.17;10.67;;;-1.20;92.30;;;2.18;52.29;98218.44;5042733;28;20060;-47
2023/01/30 02:16:28;;;;;;;20.47;11.23;;;-1.20;94.30;;;2.21;51.81;98218.25;5035797;28;20428;-46
2023/01/30 02:18:56;;;;;;;22.33;11.13;;;-1.20;94.90;;;2.25;52.34;98221.50;5044305;28;20062;-46
2023/01/30 02:21:46;;;;;;;17.07;10.43;;;-1.20;95.10;;;2.28;52.23;98208.19;5037313;28;20509;-44
2023/01/30 02:25:17;;;;;;;21.00;10.80;;;-1.20;94.90;;;2.19;52.16;98212.25;5036180;28;20041;-46
2023/01/30 02:28:28;;;;;;;17.70;10.23;;;-1.10;94.60;;;2.23;52.17;98223.38;5020137;28;20060;-44
2023/01/30 02:31:31;;;;;;;18.97;9.47;;;-1.10;94.30;;;2.16;52.05;98199.28;5031346;28;20061;-44
2023/01/30 02:34:52;;;;;;;18.13;10.33;;;-1.20;94.00;;;2.13;52.33;98160.94;5030685;28;20065;-43
2023/01/30 02:38:08;;;;;;;16.67;10.07;;;-1.10;94.50;;;2.14;52.55;98146.84;5019731;28;20063;-46
2023/01/30 02:40:59;;;;;;;16.13;9.83;;;-1.10;94.20;;;2.09;52.25;98163.81;5043706;28;20394;-46
2023/01/30 02:44:00;;;;;;;17.17;9.63;;;-1.10;94.20;;;1.98;53.04;98156.63;5035371;28;20441;-45
2023/01/30 02:46:50;;;;;;;18.03;9.30;;;-1.20;94.00;;;2.06;52.76;98154.38;5037077;28;20048;-43
2023/01/30 02:49:35;;;;;;;15.03;9.47;;;-1.20;94.10;;;2.09;52.65;98154.16;5028161;28;20061;-46
2023/01/30 02:52:10;;;;;;;16.13;9.57;;;-1.20;94.10;;;2.21;52.58;98162.22;5020327;28;20053;-45
2023/01/30 02:54:37;;;;;;;15.20;9.00;;;-1.10;94.10;;;2.27;52.26;98178.47;5019425;28;20524;-46
2023/01/30 02:57:35;;;;;;;18.13;8.53;;;-1.00;93.10;;;2.28;52.45;98169.63;5035812;28;20049;-45
2023/01/30 03:00:05;;;;;;;14.87;8.20;;;-1.00;92.20;;;2.47;51.78;98156.16;5046119;28;20061;-44
2023/01/30 03:03:11;;;;;;;16.97;8.50;;;-0.90;92.20;;;2.48;51.96;98133.34;5018934;28;20050;-46
2023/01/30 03:06:04;;;;;;;15.80;8.70;;;-0.90;91.40;;;2.54;51.71;98114.56;5021418;28;20045;-44
2023/01/30 03:09:11;;;;;;;11.60;7.20;;;-0.90;91.10;;;2.56;51.65;98103.00;5035286;28;20408;-47
2023/01/30 03:12:01;;;;;;;14.87;8.43;;;-0.90;90.30;;;2.65;51.35;98091.03;5031155;28;20045;-45
2023/01/30 03:14:48;;;;;;;15.45;8.73;;;-0.90;90.10;;;2.67;51.03;98077.78;5032506;28;20056;-44
2023/01/30 03:17:20;;;;;;;14.30;7.22;;;-0.80;88.90;;;2.72;51.26;98073.09;5016855;28;20049;-43
2023/01/30 03:19:47;;;;;;;15.67;8.80;;;-0.80;88.10;;;2.71;50.97;98052.97;5031889;28;20048;-45
2023/01/30 03:22:16;;;;;;;14.27;7.87;;;-0.70;88.20;;;2.76;51.15;98048.28;5031350;28;20046;-45
2023/01/30 03:24:43;;;;;;;16.10;8.60;;;-0.70;88.20;;;2.80;51.11;98036.59;5033515;28;20064;-46
2023/01/30 03:27:12;;;;;;;13.77;7.90;;;-0.60;87.30;;;2.88;50.91;98020.31;5032356;28;20045;-44
2023/01/30 03:29:39;;;;;;;13.90;8.03;;;-0.60;87.60;;;2.90;50.80;98034.19;5033020;28;20042;-48
2023/01/30 03:32:07;;;;;;;14.17;7.23;;;-0.60;86.40;;;2.93;50.39;98045.34;5033007;28;20053;-44
2023/01/30 03:34:35;;;;;;;16.20;7.73;;;-0.50;85.20;;;2.95;50.39;98063.66;5032245;28;20061;-45
2023/01/30 03:37:04;;;;;;;13.60;8.07;;;-0.60;84.80;;;2.94;50.03;98072.47;5032455;28;20052;-44
2023/01/30 03:39:35;;;;;;;15.30;7.97;;;-0.60;84.80;;;2.94;50.02;98075.94;5031474;28;20049;-44
2023/01/30 03:42:05;;;;;;;12.77;6.93;;;-0.60;84.00;;;2.98;49.95;98066.06;5032120;28;20072;-45
2023/01/30 03:44:32;;;;;;;12.20;6.63;;;-0.50;83.50;;;3.00;49.65;98066.81;5032079;28;20485;-45
2023/01/30 03:47:00;;;;;;;12.80;7.13;;;-0.50;82.20;;;2.97;49.60;98074.91;5032073;28;20054;-42
2023/01/30 03:49:28;;;;;;;16.77;7.53;;;-0.50;81.80;;;3.00;49.86;98074.69;5031886;28;20053;-43
2023/01/30 03:51:57;;;;;;;14.83;7.23;;;-0.40;82.00;;;3.02;49.66;98077.22;5030793;28;20057;-43
2023/01/30 03:54:24;;;;;;;12.43;7.17;;;-0.40;81.20;;;3.05;49.63;98067.34;5031386;28;20398;-45
2023/01/30 03:56:54;;;;;;;11.83;7.07;;;-0.30;81.20;;;3.01;49.40;98068.50;5031625;28;20099;-47
2023/01/30 03:59:22;;;;;;;11.27;6.70;;;-0.40;80.60;;;3.06;49.59;98076.06;5031357;28;20053;-45
2023/01/30 04:01:57;;;;;;;11.53;6.53;;;-0.40;81.10;;;3.09;49.10;98075.88;5031092;28;20416;-47
2023/01/30 04:04:25;;;;;;;12.07;6.57;;;-0.30;80.10;;;3.08;49.15;98082.06;5031274;28;20041;-45
2023/01/30 04:06:53;;;;;;;13.90;7.47;;;-0.30;79.10;;;3.04;49.18;98086.69;5030995;28;20046;-43
2023/01/30 04:09:20;;;;;;;10.13;6.67;;;-0.40;79.00;;;3.05;49.29;98072.59;5031675;28;20404;-43
2023/01/30 04:11:51;;;;;;;12.50;6.60;;;-0.30;79.30;;;3.18;49.26;98083.16;5030945;28;20060;-46
2023/01/30 04:14:19;;;;;;;12.73;7.10;;;-0.30;79.60;;;3.23;49.10;98083.66;5031642;28;20057;-44
2023/01/30 04:17:05;;;;;;;12.43;6.77;;;-0.30;80.00;;;3.28;49.03;98071.03;5032631;28;20224;-45
2023/01/30 04:19:47;;;;;;;11.50;6.47;;;-0.20;79.30;;;3.28;48.78;98081.56;5027229;28;20061;-43
2023/01/30 04:22:15;;;;;;;10.33;6.57;;;-0.20;79.40;;;3.31;49.07;98067.34;5031750;28;20053;-46
2023/01/30 04:24:43;;;;;;;10.70;6.63;;;-0.20;79.30;;;3.37;48.94;98079.25;5030295;28;20501;-43
2023/01/30 04:27:10;;;;;;;12.20;6.97;;;-0.10;79.70;;;3.38;49.06;98076.53;5030994;28;20398;-44
2023/01/30 04:29:50;;;;;;;13.43;7.13;;;-0.10;79.10;;;3.44;48.97;98075.25;5024024;28;20049;-47
2023/01/30 04:32:18;;;;;;;13.13;6.57;;;-0.10;79.20;;;3.43;48.87;98060.41;5030227;28;20527;-46
2023/01/30 04:34:46;;;;;;;12.60;6.03;;;-0.10;79.10;;;3.41;48.99;98054.41;5023129;28;20045;-45
2023/01/30 04:37:13;;;;;;;13.50;6.33;;;-0.10;78.80;;;3.47;49.13;98053.97;5030687;28;20057;-47
2023/01/30 04:39:42;;;;;;;12.17;7.03;;;0.00;78.10;;;3.50;48.78;98059.03;5031014;28;20409;-45
2023/01/30 04:42:10;;;;;;;10.00;6.27;;;0.00;79.10;;;3.54;48.69;98076.28;5030169;28;20046;-47
2023/01/30 04:44:47;;;;;;;9.23;6.20;;;0.00;79.30;;;3.57;48.46;98083.13;5029631;28;20045;-45
2023/01/30 04:47:18;;;;;;;8.47;5.73;;;0.00;79.10;;;3.62;48.75;98083.66;5030863;28;20408;-47
2023/01/30 04:49:46;;;;;;;11.30;7.07;;;0.10;79.30;;;3.64;48.75;98087.03;5031208;28;20045;-45
2023/01/30 04:52:15;;;;;;;9.70;6.33;;;0.10;79.20;;;3.66;48.72;98078.06;5029886;28;20049;-43
2023/01/30 04:54:43;;;;;;;11.67;6.10;;;0.10;79.40;;;3.73;48.80;98078.50;5031775;28;20072;-50
2023/01/30 04:57:10;;;;;;;10.53;6.40;;;0.20;78.90;;;3.77;48.62;98073.84;5031696;28;20049;-43
2023/01/30 04:59:38;;;;;;;11.07;6.50;;;0.20;78.60;;;3.80;48.41;98068.34;5030132;28;20076;-45
2023/01/30 05:02:09;;;;;;;10.33;5.90;;;0.20;78.20;;;3.79;48.23;98064.06;5030186;28;20504;-43
2023/01/30 05:04:36;;;;;;;12.97;6.93;;;0.20;78.60;;;3.78;48.57;98063.22;5031661;28;20041;-46
2023/01/30 05:07:04;;;;;;;10.80;6.73;;;0.20;78.30;;;3.79;48.51;98046.44;5031968;28;20045;-43
2023/01/30 05:09:32;;;;;;;10.57;5.97;;;0.20;78.10;;;3.79;48.29;98046.44;5031039;28;20041;-44
2023/01/30 05:11:59;;;;;;;10.33;6.60;;;0.20;78.00;;;3.78;48.61;98042.16;5030918;28;20147;-43
2023/01/30 05:14:27;;;;;;;10.13;5.90;;;0.20;78.60;;;3.81;48.38;98038.44;5031312;28;20464;-44
2023/01/30 05:16:54;;;;;;;11.43;6.43;;;0.20;78.70;;;3.81;48.22;98027.91;5031362;28;20054;-43
2023/01/30 05:19:22;;;;;;;9.50;5.67;;;0.20;78.70;;;3.79;48.43;98035.09;5031299;28;20399;-44
2023/01/30 05:21:49;;;;;;;9.83;5.97;;;0.20;78.80;;;3.84;48.37;98036.44;5030794;28;20053;-45
2023/01/30 05:24:17;;;;;;;9.47;5.63;;;0.20;79.00;;;3.87;48.93;98035.38;5031346;28;20045;-43
2023/01/30 05:26:44;;;;;;;11.47;5.80;;;0.20;78.60;;;3.89;48.48;98036.09;5031274;28;20397;-45
2023/01/30 05:29:12;;;;;;;13.50;7.00;;;0.30;79.00;;;3.96;48.44;98028.63;5031143;28;20440;-44
2023/01/30 05:31:39;;;;;;;13.20;6.80;;;0.30;79.00;;;4.00;48.64;98022.19;5030589;28;20440;-47
2023/01/30 05:34:11;;;;;;;26.83;13.40;;;0.30;79.00;;;3.97;48.30;98025.84;5030366;28;20493;-44
2023/01/30 05:36:39;;;;;;;12.70;6.97;;;0.30;78.80;;;4.00;48.45;98030.06;5029881;28;20049;-44
2023/01/30 05:39:06;;;;;;;9.40;5.97;;;0.30;79.20;;;4.03;48.40;98041.25;5031186;28;20049;-45
2023/01/30 05:41:34;;;;;;;10.43;5.63;;;0.40;79.10;;;4.03;48.23;98032.47;5028964;28;20065;-47
2023/01/30 05:44:01;;;;;;;8.73;5.43;;;0.40;80.10;;;4.03;48.51;98035.97;5030473;28;20045;-45
2023/01/30 05:46:29;;;;;;;11.57;6.43;;;0.40;78.90;;;4.03;48.32;98025.44;5030681;28;20540;-43
2023/01/30 05:48:56;;;;;;;9.00;5.00;;;0.40;79.30;;;4.06;48.56;98019.91;5030826;28;20041;-46
2023/01/30 05:51:25;;;;;;;9.77;5.87;;;0.40;79.20;;;4.10;48.70;98021.38;5029969;28;20041;-46
2023/01/30 05:53:53;;;;;;;10.80;6.83;;;0.50;79.20;;;4.13;48.45;98025.59;5022182;28;20052;-44
2023/01/30 05:56:22;;;;;;;9.33;6.43;;;0.50;79.40;;;4.13;48.25;98015.06;5029575;28;20417;-45
2023/01/30 05:58:55;;;;;;;11.03;7.07;;;0.50;79.20;;;4.14;48.47;98025.47;5029451;28;20049;-46
2023/01/30 06:01:23;;;;;;;12.67;6.27;;;0.50;79.40;;;4.13;48.15;98010.63;5030725;28;20045;-48
2023/01/30 06:03:51;;;;;;;8.87;6.17;;;0.40;79.10;;;4.14;48.21;98006.19;5022509;28;20037;-45
2023/01/30 06:06:20;;;;;;;10.60;6.27;;;0.50;79.60;;;4.09;48.35;98001.28;5029532;28;20494;-43
2023/01/30 06:08:51;;;;;;;7.97;5.70;;;0.50;79.40;;;4.11;48.34;97993.22;5029360;28;20410;-45
2023/01/30 06:11:19;;;;;;;10.63;7.00;;;0.50;78.70;;;4.11;48.06;97994.09;5030710;28;20033;-45
2023/01/30 06:13:47;;;;;;;11.20;5.70;;;0.40;78.90;;;4.08;48.64;97975.03;5030421;28;20064;-44
2023/01/30 06:16:17;;;;;;;7.60;4.90;;;0.50;78.60;;;4.03;48.22;97975.38;5029648;28;20080;-43
2023/01/30 06:18:46;;;;;;;11.27;6.97;;;0.50;78.30;;;4.02;48.33;97986.84;5030273;28;20065;-43
2023/01/30 06:21:14;;;;;;;11.93;10.23;;;0.40;78.40;;;4.02;48.03;97994.75;5030278;28;20045;-47
2023/01/30 06:23:42;;;;;;;8.70;6.13;;;0.50;78.30;;;4.06;48.47;97998.00;5030228;28;20052;-45
2023/01/30 06:26:10;;;;;;;10.07;5.83;;;0.50;78.60;;;4.08;48.49;97999.56;5029148;28;20060;-45
2023/01/30 06:28:38;;;;;;;14.70;10.50;;;0.50;79.10;;;4.11;48.35;97998.50;5029880;28;20049;-48
2023/01/30 06:31:07;;;;;;;10.43;5.67;;;0.50;78.00;;;4.11;48.53;97990.59;5030312;28;20052;-49
2023/01/30 06:33:35;;;;;;;10.70;6.30;;;0.60;78.10;;;4.13;48.26;97992.19;5028722;28;20057;-45
2023/01/30 06:36:02;;;;;;;11.33;5.60;;;0.50;77.90;;;4.16;48.22;97988.47;5030191;28;20056;-50
2023/01/30 06:38:30;;;;;;;10.07;5.43;;;0.60;78.00;;;4.17;48.05;97982.25;5030386;28;20045;-47
2023/01/30 06:40:58;;;;;;;10.30;5.77;;;0.60;78.00;;;4.21;48.24;97999.53;5030054;28;20053;-45
2023/01/30 06:43:25;;;;;;;8.80;5.20;;;0.60;77.80;;;4.23;48.25;98005.53;5029985;28;20052;-43
2023/01/30 06:45:53;;;;;;;9.37;5.37;;;0.60;77.90;;;4.20;48.87;98002.28;5023454;28;20048;-47
2023/01/30 06:48:21;;;;;;;8.10;5.10;;;0.60;77.50;;;4.24;48.28;97990.53;5033435;28;20049;-46
2023/01/30 06:50:48;;;;;;;9.07;5.47;;;0.70;79.00;;;4.26;48.31;97994.75;5032949;28;20424;-45
2023/01/30 06:53:16;;;;;;;10.73;5.50;;;0.60;78.00;;;4.30;48.55;97982.19;5016449;28;20057;-44
2023/01/30 06:55:43;;;;;;;7.53;4.83;;;0.70;78.10;;;4.31;48.22;97987.34;5032872;28;20049;-48
2023/01/30 06:58:13;;;;;;;8.10;4.57;;;0.60;78.00;;;4.27;48.25;97979.78;5033917;28;20049;-44
2023/01/30 07:00:42;;;;;;;7.80;5.20;;;0.60;78.00;;;4.23;48.57;97976.53;5033483;28;20061;-48
2023/01/30 07:03:15;;;;;;;7.87;4.60;;;0.60;78.70;;;4.29;48.09;97986.63;5033576;28;20052;-49
2023/01/30 07:05:45;;;;;;;8.50;4.53;;;0.70;78.70;;;4.31;48.29;97984.72;5032784;28;20054;-46
2023/01/30 07:08:14;;;;;;;8.00;4.67;;;0.70;78.70;;;4.32;48.57;97983.78;5033561;28;20045;-49
2023/01/30 07:10:43;;;;;;;7.10;4.10;;;0.70;78.70;;;4.31;47.92;98000.53;5033798;28;20397;-45
2023/01/30 07:13:11;;;;;;;10.17;5.23;;;0.70;79.00;;;4.35;48.06;98014.31;5033347;28;20053;-45
2023/01/30 07:15:39;;;;;;;8.03;4.37;;;0.70;79.10;;;4.33;48.27;98016.22;5032229;28;20433;-49
2023/01/30 07:18:07;;;;;;;10.07;4.93;;;0.70;78.90;;;4.29;48.20;98028.78;5033669;28;20042;-48
2023/01/30 07:20:34;;;;;;;8.63;5.10;;;0.60;79.50;;;4.29;48.26;98034.06;5031901;28;20425;-47
2023/01/30 07:23:02;;;;;;;8.07;4.97;;;0.70;79.90;;;4.23;48.32;98034.50;5033554;28;20037;-45
2023/01/30 07:25:30;;;;;;;9.23;5.23;;;0.60;79.90;;;4.27;48.48;98033.34;5033121;28;20421;-44
2023/01/30 07:28:01;;;;;;;8.90;4.77;;;0.70;80.50;;;4.22;48.71;98053.91;5032080;28;20049;-46
2023/01/30 07:30:31;;;;;;;8.83;4.77;;;0.60;80.60;;;4.33;48.74;98039.97;5033059;28;20040;-47
2023/01/30 07:32:59;;;;;;;8.60;4.83;;;0.70;80.90;;;4.42;48.96;98022.59;5025435;28;20433;-48
2023/01/30 07:35:33;;;;;;;9.20;4.70;;;0.80;80.50;;;4.46;48.98;98035.47;5032918;28;20037;-46
2023/01/30 07:38:01;;;;;;;11.20;5.22;;;0.80;80.20;;;4.52;48.81;98034.19;5025612;28;20052;-44
2023/01/30 07:40:28;;;;;;;7.97;5.13;;;0.90;80.50;;;4.54;48.32;98040.19;5032986;28;20045;-48
2023/01/30 07:43:10;;;;;;;8.73;4.60;;;0.90;80.60;;;4.51;48.88;98043.84;5032753;28;20042;-44
2023/01/30 07:45:47;;;;;;;8.07;5.57;;;0.90;80.80;;;4.53;48.99;98060.41;5029493;28;20050;-44
2023/01/30 07:48:17;;;;;;;9.60;5.10;;;0.90;81.00;;;4.59;48.67;98067.03;5031216;28;20041;-50
2023/01/30 07:50:45;;;;;;;7.90;4.70;;;1.00;81.30;;;4.64;48.41;98056.16;5030450;28;20038;-45
2023/01/30 07:53:17;;;;;;;8.70;5.77;;;1.00;81.10;;;4.69;48.65;98052.22;5025353;28;20501;-45
2023/01/30 07:55:45;;;;;;;7.87;4.43;;;1.10;81.00;;;4.70;49.00;98040.69;5026334;28;20045;-44
2023/01/30 07:58:14;;;;;;;10.77;5.90;;;1.10;81.10;;;4.73;48.61;98024.66;5031729;28;20045;-46
2023/01/30 08:00:42;;;;;;;19.60;7.83;;;1.10;81.20;;;4.78;49.13;98021.66;5032238;28;20049;-47
2023/01/30 08:03:15;;;;;;;17.03;8.70;;;1.10;81.30;;;4.81;48.97;98015.31;5033000;28;20531;-46
2023/01/30 08:05:45;;;;;;;14.97;6.80;;;1.10;81.80;;;4.82;49.02;98028.38;5032414;28;20045;-45
2023/01/30 08:08:13;;;;;;;11.10;6.50;;;1.10;82.20;;;4.83;49.02;98045.09;5032460;28;20042;-46
2023/01/30 08:10:42;;;;;;;12.57;7.37;;;1.20;82.80;;;4.83;49.21;98058.28;5032067;28;20041;-44
2023/01/30 08:13:09;;;;;;;8.77;5.90;;;1.20;83.30;;;4.85;49.73;98061.63;5032271;28;20048;-47
2023/01/30 08:15:37;;;;;;;8.30;5.17;;;1.20;83.60;;;4.88;49.63;98056.09;5032185;28;20044;-48
2023/01/30 08:18:07;;;;;;;9.77;5.73;;;1.20;84.00;;;4.95;49.51;98020.41;5032035;28;20358;-46
2023/01/30 08:20:35;;;;;;;22.67;10.07;;;1.30;84.10;;;4.96;49.66;98003.59;5031787;28;20505;-45
2023/01/30 08:23:03;;;;;;;17.63;8.03;;;1.30;84.20;;;4.99;49.59;97991.97;5032027;28;20048;-44
2023/01/30 08:25:31;;;;;;;13.00;7.10;;;1.30;84.40;;;4.97;50.02;97981.53;5032356;28;20052;-48
2023/01/30 08:27:59;;;;;;;9.93;6.50;;;1.30;85.30;;;4.98;49.54;97972.66;5031891;28;20050;-48
2023/01/30 08:30:27;;;;;;;9.33;5.13;;;1.30;86.10;;;5.02;49.50;97976.75;5031846;28;20052;-46
2023/01/30 08:32:56;;;;;;;8.53;4.30;;;1.40;86.00;;;5.03;50.61;97956.47;5031918;28;20041;-46
2023/01/30 08:35:24;;;;;;;7.60;3.83;;;1.40;86.30;;;5.09;49.74;97971.84;5032136;28;20064;-50
2023/01/30 08:37:51;;;;;;;7.43;4.37;;;1.50;86.60;;;5.11;49.86;97981.31;5032003;28;20049;-49
2023/01/30 08:40:19;;;;;;;9.93;5.10;;;1.50;86.60;;;5.16;50.22;97991.53;5031667;28;20064;-45
2023/01/30 08:42:47;;;;;;;7.13;4.03;;;1.60;86.90;;;5.24;50.55;97991.75;5030136;28;20044;-46
2023/01/30 08:45:14;;;;;;;7.87;4.43;;;1.70;87.20;;;5.26;50.14;97991.66;5032415;28;20088;-45
2023/01/30 08:47:42;;;;;;;7.00;3.60;;;1.70;87.40;;;5.30;50.78;97983.34;5030520;28;20037;-45
2023/01/30 08:50:10;;;;;;;5.70;3.30;;;1.70;87.60;;;5.37;50.20;97991.66;5031896;28;20033;-44
2023/01/30 08:52:37;;;;;;;8.20;4.87;;;1.80;88.00;;;5.43;50.50;97988.53;5030376;28;20048;-45
2023/01/30 08:55:05;;;;;;;7.97;4.13;;;1.80;88.10;;;5.49;50.83;97985.41;5030629;28;20045;-47
2023/01/30 08:57:33;;;;;;;5.60;3.40;;;1.90;88.30;;;5.57;50.36;97978.69;5031714;28;20248;-44
2023/01/30 09:00:01;;;;;;;7.13;3.93;;;2.00;88.60;;;5.61;50.91;97951.91;5023517;28;20049;-44
2023/01/30 09:02:29;;;;;;;5.73;3.43;;;2.10;89.30;;;5.64;51.10;97941.09;5031285;28;20068;-44
2023/01/30 09:04:57;;;;;;;4.63;2.93;;;2.10;89.50;;;5.69;51.22;97938.91;5031415;28;20064;-44
2023/01/30 09:07:27;;;;;;;3.87;2.57;;;2.20;89.90;;;5.74;50.81;97941.19;5031307;28;20068;-45
2023/01/30 09:09:54;;;;;;;4.97;2.90;;;2.20;90.40;;;5.76;51.03;97936.63;5030552;28;20042;-45
2023/01/30 09:12:22;;;;;;;4.53;2.80;;;2.30;90.50;;;5.81;50.94;97945.00;5031194;28;20452;-46
2023/01/30 09:14:54;;;;;;;6.00;3.03;;;2.30;89.50;;;5.81;51.18;97939.72;5029899;28;20056;-44
2023/01/30 09:17:22;;;;;;;7.10;3.93;;;2.30;89.00;;;5.83;50.90;97950.16;5031357;28;20045;-45
2023/01/30 09:19:49;;;;;;;6.77;3.53;;;2.30;88.60;;;5.82;50.49;97946.69;5030021;28;20528;-46
2023/01/30 09:22:17;;;;;;;6.80;3.80;;;2.30;88.40;;;5.75;51.14;97955.22;5030708;28;20041;-45
2023/01/30 09:24:44;;;;;;;6.10;3.33;;;2.30;88.70;;;5.76;50.77;97959.53;5031126;28;20041;-47
2023/01/30 09:27:12;;;;;;;4.97;2.70;;;2.20;88.70;;;5.79;50.45;97954.84;5031222;28;20044;-44
2023/01/30 09:29:39;;;;;;;5.17;2.93;;;2.30;89.00;;;5.86;51.27;97960.50;5030859;28;20473;-44
2023/01/30 09:32:07;;;;;;;5.90;3.23;;;2.30;89.10;;;5.87;51.47;97954.22;5030833;28;20048;-44
2023/01/30 09:34:34;;;;;;;5.53;2.77;;;2.40;89.20;;;5.90;51.31;97960.13;5031264;28;20051;-44
2023/01/30 09:37:03;;;;;;;4.83;2.70;;;2.40;89.30;;;5.93;50.88;97951.09;5030785;28;20041;-44
2023/01/30 09:39:31;;;;;;;5.60;3.50;;;2.40;89.20;;;5.94;51.06;97944.03;5030992;28;20500;-45
2023/01/30 09:42:29;;;;;;;6.40;3.60;;;2.40;88.80;;;5.93;51.31;97945.81;5030325;28;20425;-44
2023/01/30 09:45:30;;;;;;;10.60;4.63;;;2.30;89.00;;;5.95;50.74;97945.69;5029567;28;20537;-45
2023/01/30 09:48:16;;;;;;;10.40;5.40;;;2.30;88.80;;;5.96;50.63;97929.75;5030784;28;20049;-44
2023/01/30 09:50:54;;;;;;;21.93;10.63;;;2.30;88.90;;;5.98;51.32;97929.63;5030549;28;20052;-44
2023/01/30 09:53:56;;;;;;;15.40;7.97;;;2.40;89.20;;;5.98;50.70;97930.47;5030519;28;20030;-44
2023/01/30 09:56:26;;;;;;;21.37;11.50;;;2.40;89.60;;;6.02;51.37;97909.91;5025706;28;20045;-44
2023/01/30 09:58:58;;;;;;;6.50;3.47;;;2.40;90.70;;;6.08;51.49;97904.09;5029316;28;20288;-44
2023/01/30 10:01:57;;;;;;;6.00;2.90;;;2.60;91.50;;;6.10;51.54;97894.25;5030141;28;20053;-44
2023/01/30 10:04:44;;;;;;;5.57;3.23;;;2.70;92.00;;;6.20;51.95;97904.91;5024229;28;20049;-45
2023/01/30 10:07:46;;;;;;;4.70;2.27;;;2.80;91.80;;;6.26;51.85;97899.09;5024612;28;20072;-44
2023/01/30 10:10:33;;;;;;;2.93;1.80;;;2.80;92.60;;;6.31;52.12;97897.75;5023505;28;20516;-46
2023/01/30 10:13:14;;;;;;;2.97;1.63;;;2.90;92.50;;;6.38;51.86;97892.78;5029411;28;20120;-45
2023/01/30 10:16:11;;;;;;;6.70;3.57;;;3.00;92.40;;;6.48;51.40;97890.22;5029181;28;20050;-45
2023/01/30 10:19:06;;;;;;;3.63;1.60;;;3.00;92.60;;;6.34;53.01;97894.03;5029613;28;20421;-46
2023/01/30 10:21:54;;;;;;;2.72;1.08;;;3.10;95.00;;;6.45;52.44;97886.00;5029554;28;20045;-44
2023/01/30 10:24:47;;;;;;;0.90;0.60;;;3.20;97.30;;;6.29;54.56;97906.78;5027167;28;20140;-44
2023/01/30 10:27:16;;;;;;;0.90;0.73;;;3.30;98.60;;;6.51;53.96;97882.00;5027654;28;20496;-44
2023/01/30 10:29:51;;;;;;;1.53;1.13;;;3.40;98.50;;;6.48;54.55;97872.53;5033056;28;20537;-46
2023/01/30 10:32:40;;;;;;;0.87;0.80;;;3.40;99.00;;;6.28;54.86;97890.09;5033072;28;20041;-47
2023/01/30 10:35:41;;;;;;;1.17;0.97;;;3.50;99.80;;;6.33;55.14;97870.34;5033009;28;20528;-47
2023/01/30 10:38:25;;;;;;;1.30;1.00;;;3.60;99.90;;;6.57;54.13;97857.69;5033951;28;20068;-45
2023/01/30 10:41:27;;;;;;;1.20;0.90;;;3.60;99.90;;;6.45;54.65;97856.09;5025302;28;20394;-44
2023/01/30 10:44:13;;;;;;;1.70;1.13;;;3.60;99.90;;;6.44;55.24;97849.13;5033117;28;20041;-45
2023/01/30 10:46:55;;;;;;;1.07;0.70;;;3.70;99.90;;;6.55;55.40;97850.84;5013214;28;20515;-49
2023/01/30 10:49:51;;;;;;;0.83;0.80;;;3.70;99.90;;;6.44;55.27;97847.31;5027401;28;20037;-46
2023/01/30 10:52:43;;;;;;;1.83;1.00;;;3.70;99.90;;;6.62;54.75;97834.31;5026004;28;20037;-46
2023/01/30 10:55:38;;;;;;;1.10;0.87;;;3.70;99.90;;;6.61;54.89;97876.78;5025269;28;20046;-48
2023/01/30 10:58:46;;;;;;;3.00;1.23;;;3.80;99.90;;;6.49;54.94;97850.41;5032403;28;20056;-45